PWSweather.com
Personal Weather Stations
Station Observations
METEORENI
Tielt, Witte Kave, TieltBE

Tielt, Witte KaveTieltBE

Lat: 50.9938727, Lon: 3.341134199999942

Elevation: 0

Station Type: Netatmo

www.meteoreni.be

High Low Average
Temperature 77.4°F25.2°F 62.8°F17.1°F 68.4°F20.2°F
Dew Point 65.8°F18.8°F 55.0°F12.8°F 60.6°F15.9°F
Winds 11.9 mph -19.2 mph - Calm Calm 2.7 mph 4.3 mph
Wind Gusts 29.3 mph47.2 mph 1.8 mph2.9 mph 6.5 mph10.5 mph
Humidity 87% 71% 81%
Pressure 29.94 in1013.90 in 29.83 in1010.20 in -
Precipitation 2.06 in52.30 in - -
Hour Temp Dew Point Humidity Winds Wind Gusts Pressure Precip Precip Rate Daily Precip Total
12:03 AM 68.4°F20.2°C 59.5°F15.3°C 78% 0.7 mph E1.1 kmh E 3.1 mph5.0 kmh 29.93 in1013.5 mb 0.00 in0.0 mm 0.00 in0.0 mm 0.00 in0.0 mm
12:23 AM 68.0°F20.0°C 59.5°F15.3°C 79% 0.7 mph NE1.1 kmh NE 2.5 mph4.0 kmh 29.93 in1013.5 mb 0.00 in0.0 mm 0.00 in0.0 mm 0.00 in0.0 mm
12:43 AM 67.5°F19.7°C 59.5°F15.3°C 80% 0.7 mph NE1.1 kmh NE 2.5 mph4.0 kmh 29.92 in1013.2 mb 0.00 in0.0 mm 0.00 in0.0 mm 0.00 in0.0 mm
01:03 AM 67.3°F19.6°C 59.4°F15.2°C 80% 0.7 mph NE1.1 kmh NE 1.8 mph2.9 kmh 29.91 in1012.9 mb 0.00 in0.0 mm 0.00 in0.0 mm 0.00 in0.0 mm
01:23 AM 67.3°F19.6°C 59.7°F15.4°C 81% 0.7 mph E1.1 kmh E 2.5 mph4.0 kmh 29.90 in1012.5 mb 0.00 in0.0 mm 0.00 in0.0 mm 0.00 in0.0 mm
01:43 AM 66.9°F19.4°C 59.4°F15.2°C 81% 0.7 mph E1.1 kmh E 2.5 mph4.0 kmh 29.89 in1012.2 mb 0.00 in0.0 mm 0.00 in0.0 mm 0.00 in0.0 mm
02:03 AM 66.4°F19.1°C 59.2°F15.1°C 82% 0.7 mph NE1.1 kmh NE 1.8 mph2.9 kmh 29.89 in1012.2 mb 0.00 in0.0 mm 0.00 in0.0 mm 0.00 in0.0 mm
02:23 AM 66.0°F18.9°C 58.8°F14.9°C 82% Calm Calm 1.8 mph2.9 kmh 29.89 in1012.2 mb 0.00 in0.0 mm 0.00 in0.0 mm 0.00 in0.0 mm
02:43 AM 66.0°F18.9°C 59.4°F15.2°C 83% 1.8 mph WNW2.9 kmh WNW 11.9 mph19.2 kmh 29.93 in1013.5 mb 0.00 in0.0 mm 0.00 in0.0 mm 0.00 in0.0 mm
03:03 AM 66.7°F19.3°C 58.8°F14.9°C 80% 2.5 mph 4.0 kmh 6.3 mph10.1 kmh 29.91 in1012.9 mb 0.00 in0.0 mm 0.00 in0.0 mm 0.00 in0.0 mm
03:23 AM 66.6°F19.2°C 58.1°F14.5°C 79% 1.8 mph NE2.9 kmh NE 5.6 mph9.0 kmh 29.90 in1012.5 mb 0.00 in0.0 mm 0.00 in0.0 mm 0.00 in0.0 mm
03:43 AM 66.0°F18.9°C 57.2°F14.0°C 78% 1.8 mph NNE2.9 kmh NNE 3.8 mph6.1 kmh 29.90 in1012.5 mb 0.00 in0.0 mm 0.00 in0.0 mm 0.00 in0.0 mm
04:03 AM 65.8°F18.8°C 55.8°F13.2°C 75% 1.8 mph NE2.9 kmh NE 4.9 mph7.9 kmh 29.90 in1012.5 mb 0.00 in0.0 mm 0.00 in0.0 mm 0.00 in0.0 mm
04:24 AM 65.5°F18.6°C 55.0°F12.8°C 74% 2.5 mph NE4.0 kmh NE 6.3 mph10.1 kmh 29.89 in1012.2 mb 0.00 in0.0 mm 0.00 in0.0 mm 0.00 in0.0 mm
04:43 AM 64.9°F18.3°C 55.0°F12.8°C 75% 2.5 mph NE4.0 kmh NE 5.6 mph9.0 kmh 29.88 in1011.9 mb 0.00 in0.0 mm 0.00 in0.0 mm 0.00 in0.0 mm
05:04 AM 64.9°F18.3°C 55.4°F13.0°C 76% 2.5 mph NE4.0 kmh NE 6.9 mph11.1 kmh 29.86 in1011.2 mb 0.00 in0.0 mm 0.00 in0.0 mm 0.00 in0.0 mm
05:24 AM 64.4°F18.0°C 56.8°F13.8°C 81% 9.4 mph W15.1 kmh W 22.4 mph36.0 kmh 29.90 in1012.5 mb 0.22 in5.6 mm 0.67 in17.0 mm 0.22 in5.6 mm
05:44 AM 63.0°F17.2°C 56.3°F13.5°C 83% 8.1 mph SW13.0 kmh SW 17.4 mph28.0 kmh 29.83 in1010.2 mb 0.29 in7.4 mm 0.21 in5.3 mm 0.30 in7.6 mm
06:04 AM 63.0°F17.2°C 57.2°F14.0°C 85% 9.4 mph SW15.1 kmh SW 17.4 mph28.0 kmh 29.85 in1010.8 mb 0.29 in7.4 mm 0.00 in0.0 mm 0.30 in7.6 mm
06:24 AM 63.0°F17.2°C 57.2°F14.0°C 85% 8.7 mph SW14.0 kmh SW 15.4 mph24.8 kmh 29.85 in1010.8 mb 0.00 in0.0 mm 0.00 in0.0 mm 0.30 in7.6 mm
06:45 AM 62.8°F17.1°C 57.4°F14.1°C 86% 9.4 mph SW15.1 kmh SW 19.2 mph30.9 kmh 29.86 in1011.2 mb 0.00 in0.0 mm 0.00 in0.0 mm 0.30 in7.6 mm
07:07 AM 63.1°F17.3°C 57.7°F14.3°C 86% 11.9 mph SSW19.2 kmh SSW 29.3 mph47.2 kmh 29.86 in1011.2 mb 0.00 in0.0 mm 0.00 in0.0 mm 0.30 in7.6 mm
07:27 AM 63.9°F17.7°C 58.8°F14.9°C 87% 8.7 mph NW14.0 kmh NW 23.0 mph37.0 kmh 29.85 in1010.8 mb 0.00 in0.0 mm 0.00 in0.0 mm 0.30 in7.6 mm
07:48 AM 65.1°F18.4°C 59.7°F15.4°C 86% 9.4 mph SSW15.1 kmh SSW 18.1 mph29.1 kmh 29.85 in1010.8 mb 0.00 in0.0 mm 0.01 in0.3 mm 0.30 in7.6 mm
08:07 AM 66.2°F19.0°C 60.3°F15.7°C 85% 4.9 mph S7.9 kmh S 11.2 mph18.0 kmh 29.85 in1010.8 mb 0.00 in0.0 mm 0.00 in0.0 mm 0.30 in7.6 mm
08:27 AM 66.7°F19.3°C 60.1°F15.6°C 83% 1.8 mph SE2.9 kmh SE 8.1 mph13.0 kmh 29.85 in1010.8 mb 0.00 in0.0 mm 0.00 in0.0 mm 0.30 in7.6 mm
08:48 AM 67.1°F19.5°C 59.9°F15.5°C 82% 2.5 mph SE4.0 kmh SE 5.6 mph9.0 kmh 29.86 in1011.2 mb 0.00 in0.0 mm 0.00 in0.0 mm 0.30 in7.6 mm
09:07 AM 67.6°F19.8°C 60.1°F15.6°C 81% 1.8 mph SE2.9 kmh SE 3.1 mph5.0 kmh 29.88 in1011.9 mb 0.00 in0.0 mm 0.00 in0.0 mm 0.30 in7.6 mm
09:28 AM 68.4°F20.2°C 60.8°F16.0°C 81% 1.8 mph SSE2.9 kmh SSE 3.8 mph6.1 kmh 29.89 in1012.2 mb 0.00 in0.0 mm 0.00 in0.0 mm 0.30 in7.6 mm
09:47 AM 68.4°F20.2°C 59.9°F15.5°C 79% 1.8 mph NNE2.9 kmh NNE 3.8 mph6.1 kmh 29.90 in1012.5 mb 0.00 in0.0 mm 0.00 in0.0 mm 0.30 in7.6 mm
10:08 AM 68.4°F20.2°C 60.8°F16.0°C 81% 1.8 mph NE2.9 kmh NE 3.8 mph6.1 kmh 29.88 in1011.9 mb 0.00 in0.0 mm 0.00 in0.0 mm 0.30 in7.6 mm
10:28 AM 68.9°F20.5°C 61.3°F16.3°C 81% 0.7 mph SE1.1 kmh SE 2.5 mph4.0 kmh 29.90 in1012.5 mb 0.00 in0.0 mm 0.00 in0.0 mm 0.30 in7.6 mm
10:48 AM 70.0°F21.1°C 61.5°F16.4°C 79% 1.8 mph SE2.9 kmh SE 3.8 mph6.1 kmh 29.88 in1011.9 mb 0.00 in0.0 mm 0.00 in0.0 mm 0.30 in7.6 mm
11:08 AM 70.2°F21.2°C 60.8°F16.0°C 77% 0.7 mph NE1.1 kmh NE 3.1 mph5.0 kmh 29.87 in1011.5 mb 0.00 in0.0 mm 0.00 in0.0 mm 0.30 in7.6 mm
11:28 AM 70.0°F21.1°C 61.2°F16.2°C 78% 0.7 mph E1.1 kmh E 3.8 mph6.1 kmh 29.88 in1011.9 mb 0.00 in0.0 mm 0.00 in0.0 mm 0.30 in7.6 mm
11:48 AM 69.8°F21.0°C 61.7°F16.5°C 80% 1.8 mph SE2.9 kmh SE 3.1 mph5.0 kmh 29.88 in1011.9 mb 0.00 in0.0 mm 0.00 in0.0 mm 0.30 in7.6 mm
12:08 PM 70.3°F21.3°C 62.2°F16.8°C 80% 1.8 mph NE2.9 kmh NE 3.8 mph6.1 kmh 29.86 in1011.2 mb 0.00 in0.0 mm 0.00 in0.0 mm 0.30 in7.6 mm
12:28 PM 70.9°F21.6°C 62.4°F16.9°C 79% 0.7 mph SE1.1 kmh SE 2.5 mph4.0 kmh 29.87 in1011.5 mb 0.00 in0.0 mm 0.00 in0.0 mm 0.30 in7.6 mm
12:49 PM 72.1°F22.3°C 62.4°F16.9°C 76% 1.8 mph SE2.9 kmh SE 3.8 mph6.1 kmh 29.87 in1011.5 mb 0.00 in0.0 mm 0.00 in0.0 mm 0.30 in7.6 mm
01:08 PM 73.0°F22.8°C 63.7°F17.6°C 77% 1.8 mph SE2.9 kmh SE 3.8 mph6.1 kmh 29.87 in1011.5 mb 0.00 in0.0 mm 0.00 in0.0 mm 0.30 in7.6 mm
01:29 PM 74.8°F23.8°C 64.6°F18.1°C 75% 1.8 mph SSW2.9 kmh SSW 4.9 mph7.9 kmh 29.88 in1011.9 mb 0.00 in0.0 mm 0.00 in0.0 mm 0.30 in7.6 mm
01:48 PM 75.2°F24.0°C 64.4°F18.0°C 74% 3.1 mph S5.0 kmh S 6.3 mph10.1 kmh 29.87 in1011.5 mb 0.00 in0.0 mm 0.00 in0.0 mm 0.30 in7.6 mm
02:08 PM 76.3°F24.6°C 65.5°F18.6°C 74% 2.5 mph SSW4.0 kmh SSW 6.9 mph11.1 kmh 29.87 in1011.5 mb 0.00 in0.0 mm 0.00 in0.0 mm 0.30 in7.6 mm
02:29 PM 76.6°F24.8°C 65.8°F18.8°C 74% 2.5 mph SW4.0 kmh SW 5.6 mph9.0 kmh 29.86 in1011.2 mb 0.00 in0.0 mm 0.00 in0.0 mm 0.30 in7.6 mm
02:48 PM 77.0°F25.0°C 65.3°F18.5°C 72% 1.8 mph SW2.9 kmh SW 6.3 mph10.1 kmh 29.86 in1011.2 mb 0.00 in0.0 mm 0.00 in0.0 mm 0.30 in7.6 mm
03:06 PM 77.4°F25.2°C 65.3°F18.5°C 71% 2.5 mph W4.0 kmh W 6.3 mph10.1 kmh 29.86 in1011.2 mb 0.00 in0.0 mm 0.00 in0.0 mm 0.30 in7.6 mm
03:27 PM 76.5°F24.7°C 65.3°F18.5°C 73% 1.8 mph WSW2.9 kmh WSW 6.9 mph11.1 kmh 29.87 in1011.5 mb 0.01 in0.3 mm 0.03 in0.8 mm 0.31 in7.9 mm
03:47 PM 75.0°F23.9°C 64.8°F18.2°C 75% 1.8 mph WSW2.9 kmh WSW 4.9 mph7.9 kmh 29.87 in1011.5 mb 0.01 in0.3 mm 0.00 in0.0 mm 0.31 in7.9 mm
04:07 PM 73.6°F23.1°C 64.2°F17.9°C 77% 1.8 mph W2.9 kmh W 3.8 mph6.1 kmh 29.87 in1011.5 mb 0.03 in0.8 mm 0.02 in0.5 mm 0.33 in8.4 mm
04:27 PM 72.7°F22.6°C 64.9°F18.3°C 81% 0.7 mph SW1.1 kmh SW 3.8 mph6.1 kmh 29.87 in1011.5 mb 0.04 in1.0 mm 0.04 in1.0 mm 0.35 in8.9 mm
04:47 PM 72.3°F22.4°C 64.6°F18.1°C 81% 1.8 mph WSW2.9 kmh WSW 3.1 mph5.0 kmh 29.86 in1011.2 mb 0.05 in1.3 mm 0.02 in0.5 mm 0.36 in9.1 mm
05:07 PM 72.5°F22.5°C 65.3°F18.5°C 82% 2.5 mph SSW4.0 kmh SSW 6.3 mph10.1 kmh 29.86 in1011.2 mb 0.04 in1.0 mm 0.00 in0.0 mm 0.37 in9.4 mm
05:26 PM 73.2°F22.9°C 65.5°F18.6°C 81% 3.8 mph SSW6.1 kmh SSW 13.6 mph21.9 kmh 29.86 in1011.2 mb 0.02 in0.5 mm 0.00 in0.0 mm 0.37 in9.4 mm
05:46 PM 73.0°F22.8°C 64.6°F18.1°C 79% 1.8 mph S2.9 kmh S 4.9 mph7.9 kmh 29.86 in1011.2 mb 0.01 in0.3 mm 0.00 in0.0 mm 0.37 in9.4 mm
06:06 PM 71.8°F22.1°C 63.3°F17.4°C 79% 1.8 mph NE2.9 kmh NE 3.8 mph6.1 kmh 29.88 in1011.9 mb 0.00 in0.0 mm 0.00 in0.0 mm 0.37 in9.4 mm
06:26 PM 70.7°F21.5°C 62.2°F16.8°C 79% 1.8 mph NE2.9 kmh NE 3.1 mph5.0 kmh 29.88 in1011.9 mb 0.00 in0.0 mm 0.01 in0.3 mm 0.37 in9.4 mm
06:44 PM 69.8°F21.0°C 62.2°F16.8°C 81% 0.7 mph NE1.1 kmh NE 3.1 mph5.0 kmh 29.88 in1011.9 mb 0.06 in1.5 mm 0.19 in4.8 mm 0.43 in10.9 mm
07:04 PM 68.4°F20.2°C 60.8°F16.0°C 81% 1.8 mph SW2.9 kmh SW 3.1 mph5.0 kmh 29.88 in1011.9 mb 0.13 in3.3 mm 0.10 in2.5 mm 0.49 in12.4 mm
07:22 PM 67.6°F19.8°C 61.0°F16.1°C 83% 3.8 mph W6.1 kmh W 8.7 mph14.0 kmh 29.90 in1012.5 mb 0.22 in5.6 mm 0.32 in8.1 mm 0.60 in15.2 mm
07:43 PM 66.7°F19.3°C 60.1°F15.6°C 83% 2.5 mph NW4.0 kmh NW 5.6 mph9.0 kmh 29.89 in1012.2 mb 0.25 in6.4 mm 0.09 in2.3 mm 0.74 in18.8 mm
08:03 PM 66.4°F19.1°C 60.1°F15.6°C 84% 2.5 mph WNW4.0 kmh WNW 5.6 mph9.0 kmh 29.90 in1012.5 mb 0.26 in6.6 mm 0.01 in0.3 mm 0.76 in19.3 mm
08:23 PM 66.2°F19.0°C 60.3°F15.7°C 85% 3.1 mph WNW5.0 kmh WNW 5.6 mph9.0 kmh 29.91 in1012.9 mb 0.10 in2.5 mm 0.00 in0.0 mm 0.76 in19.3 mm
08:44 PM 65.8°F18.8°C 59.5°F15.3°C 84% 3.1 mph W5.0 kmh W 5.6 mph9.0 kmh 29.91 in1012.9 mb 0.00 in0.0 mm 0.00 in0.0 mm 0.76 in19.3 mm
09:03 PM 65.7°F18.7°C 59.7°F15.4°C 85% 3.1 mph W5.0 kmh W 5.6 mph9.0 kmh 29.92 in1013.2 mb 0.00 in0.0 mm 0.00 in0.0 mm 0.76 in19.3 mm
09:24 PM 65.5°F18.6°C 59.5°F15.3°C 85% 3.1 mph WSW5.0 kmh WSW 5.6 mph9.0 kmh 29.93 in1013.5 mb 0.00 in0.0 mm 0.00 in0.0 mm 0.76 in19.3 mm
09:43 PM 65.1°F18.4°C 59.2°F15.1°C 85% 2.5 mph W4.0 kmh W 6.3 mph10.1 kmh 29.93 in1013.5 mb 0.00 in0.0 mm 0.00 in0.0 mm 0.76 in19.3 mm
10:04 PM 64.8°F18.2°C 58.8°F14.9°C 85% 3.1 mph W5.0 kmh W 5.6 mph9.0 kmh 29.93 in1013.5 mb 0.00 in0.0 mm 0.00 in0.0 mm 0.76 in19.3 mm
10:24 PM 64.6°F18.1°C 59.2°F15.1°C 86% 2.5 mph W4.0 kmh W 4.9 mph7.9 kmh 29.93 in1013.5 mb 0.00 in0.0 mm 0.00 in0.0 mm 0.76 in19.3 mm
10:44 PM 64.4°F18.0°C 59.0°F15.0°C 86% 1.8 mph W2.9 kmh W 3.1 mph5.0 kmh 29.93 in1013.5 mb 0.00 in0.0 mm 0.00 in0.0 mm 0.76 in19.3 mm
11:04 PM 64.2°F17.9°C 59.2°F15.1°C 87% 1.8 mph WSW2.9 kmh WSW 3.1 mph5.0 kmh 29.93 in1013.5 mb 0.00 in0.0 mm 0.00 in0.0 mm 0.61 in15.5 mm
11:24 PM 64.0°F17.8°C 59.0°F15.0°C 87% 0.7 mph W1.1 kmh W 3.1 mph5.0 kmh 29.94 in1013.9 mb 0.00 in0.0 mm 0.00 in0.0 mm 0.61 in15.5 mm
11:44 PM 63.7°F17.6°C 58.6°F14.8°C 87% 0.7 mph W1.1 kmh W 3.8 mph6.1 kmh 29.94 in1013.9 mb 0.00 in0.0 mm 0.00 in0.0 mm 0.61 in15.5 mm